createdAt,value
2023-01-17T00:02:28.239Z,0.30
2023-01-17T00:05:15.636Z,0.40
2023-01-17T00:08:02.088Z,0.40
2023-01-17T00:10:32.808Z,0.50
2023-01-17T00:13:06.646Z,0.50
2023-01-17T00:15:34.568Z,0.60
2023-01-17T00:18:01.928Z,0.60
2023-01-17T00:20:53.347Z,0.70
2023-01-17T00:23:41.972Z,0.70
2023-01-17T00:26:34.629Z,0.70
2023-01-17T00:29:01.726Z,0.70
2023-01-17T00:31:30.434Z,0.70
2023-01-17T00:34:00.488Z,0.80
2023-01-17T00:36:31.644Z,0.80
2023-01-17T00:39:00.884Z,0.80
2023-01-17T00:41:29.483Z,0.70
2023-01-17T00:44:15.357Z,0.70
2023-01-17T00:47:04.779Z,0.70
2023-01-17T00:49:55.100Z,0.70
2023-01-17T00:52:43.037Z,0.80
2023-01-17T00:55:31.147Z,0.90
2023-01-17T00:58:18.828Z,1.00
2023-01-17T01:01:07.089Z,1.00
2023-01-17T01:03:56.885Z,1.10
2023-01-17T01:07:21.249Z,1.10
2023-01-17T01:10:07.819Z,1.20
2023-01-17T01:12:56.100Z,1.20
2023-01-17T01:15:44.182Z,1.20
2023-01-17T01:18:33.490Z,1.30
2023-01-17T01:21:27.180Z,1.30
2023-01-17T01:24:16.665Z,1.30
2023-01-17T01:27:04.070Z,1.30
2023-01-17T01:29:51.035Z,1.20
2023-01-17T01:32:37.972Z,1.20
2023-01-17T01:35:13.965Z,1.20
2023-01-17T01:37:49.905Z,1.20
2023-01-17T01:40:18.812Z,1.20
2023-01-17T01:42:58.536Z,1.20
2023-01-17T01:45:30.475Z,1.30
2023-01-17T01:48:07.315Z,1.30
2023-01-17T01:50:38.286Z,1.30
2023-01-17T01:53:09.803Z,1.40
2023-01-17T01:55:55.920Z,1.40
2023-01-17T01:58:28.112Z,1.40
2023-01-17T02:00:56.935Z,1.40
2023-01-17T02:03:28.508Z,1.40
2023-01-17T02:06:05.645Z,1.40
2023-01-17T02:08:35.406Z,1.40
2023-01-17T02:11:03.636Z,1.40
2023-01-17T02:13:32.340Z,1.40
2023-01-17T02:16:49.340Z,1.40
2023-01-17T02:19:50.775Z,1.40
2023-01-17T02:22:55.584Z,1.40
2023-01-17T02:25:52.184Z,1.40
2023-01-17T02:28:42.295Z,1.40
2023-01-17T02:31:18.813Z,1.40
2023-01-17T02:34:03.100Z,1.40
2023-01-17T02:36:58.494Z,1.40
2023-01-17T02:40:02.926Z,1.50
2023-01-17T02:42:50.123Z,1.40
2023-01-17T02:45:20.291Z,1.40
2023-01-17T02:47:55.475Z,1.40
2023-01-17T02:50:38.015Z,1.50
2023-01-17T02:53:46.535Z,1.50
2023-01-17T02:56:39.893Z,1.50
2023-01-17T02:59:26.591Z,1.50
2023-01-17T03:02:40.068Z,1.50
2023-01-17T03:05:48.124Z,1.50
2023-01-17T03:08:25.763Z,1.60
2023-01-17T03:10:58.923Z,1.50
2023-01-17T03:13:33.796Z,1.50
2023-01-17T03:16:01.486Z,1.40
2023-01-17T03:18:37.825Z,1.40
2023-01-17T03:21:08.800Z,1.50
2023-01-17T03:23:38.394Z,1.50
2023-01-17T03:26:06.123Z,1.50
2023-01-17T03:28:35.375Z,1.50
2023-01-17T03:31:05.031Z,1.50
2023-01-17T03:33:35.562Z,1.30
2023-01-17T03:36:05.830Z,1.20
2023-01-17T03:38:41.900Z,1.20
2023-01-17T03:41:19.019Z,1.10
2023-01-17T03:43:48.604Z,1.10
2023-01-17T03:46:30.961Z,1.10
2023-01-17T03:49:01.348Z,1.10
2023-01-17T03:51:32.149Z,1.00
2023-01-17T03:54:00.787Z,1.00
2023-01-17T03:56:29.247Z,1.00
2023-01-17T03:59:06.273Z,1.00
2023-01-17T04:01:34.911Z,1.00
2023-01-17T04:04:05.809Z,1.00
2023-01-17T04:06:34.868Z,1.10
2023-01-17T04:09:03.416Z,1.10
2023-01-17T04:11:33.831Z,1.10
2023-01-17T04:14:03.671Z,0.10
2023-01-17T04:16:32.936Z,-1.40
2023-01-17T04:19:11.635Z,-2.60
2023-01-17T04:21:42.886Z,-3.50
2023-01-17T04:24:12.646Z,-4.20
2023-01-17T04:26:40.865Z,-4.70
2023-01-17T04:29:13.376Z,-5.10
2023-01-17T04:31:44.602Z,-5.40
2023-01-17T04:34:14.703Z,-5.60
2023-01-17T04:36:44.246Z,-5.80
2023-01-17T04:39:14.163Z,-5.90
2023-01-17T04:41:45.162Z,-5.60
2023-01-17T04:44:13.865Z,-5.40
2023-01-17T04:46:43.629Z,-5.50
2023-01-17T04:49:13.007Z,-5.00
2023-01-17T04:51:43.223Z,-4.10
2023-01-17T04:54:13.880Z,-3.60
2023-01-17T04:56:42.670Z,-3.20
2023-01-17T04:59:09.979Z,-3.40
2023-01-17T05:01:47.021Z,-3.40
2023-01-17T05:07:02.421Z,-3.50
2023-01-17T05:09:34.900Z,-4.00
2023-01-17T05:12:04.506Z,-4.30
2023-01-17T05:14:35.319Z,-4.40
2023-01-17T05:17:03.892Z,-4.40
2023-01-17T05:19:32.342Z,-3.80
2023-01-17T05:22:04.423Z,-3.10
2023-01-17T05:24:44.427Z,-2.50
2023-01-17T05:27:15.907Z,-2.00
2023-01-17T05:29:44.337Z,-1.70
2023-01-17T05:32:12.665Z,-1.40
2023-01-17T05:34:39.675Z,-1.20
2023-01-17T05:37:08.969Z,-1.00
2023-01-17T05:39:36.971Z,-0.90
2023-01-17T05:42:09.614Z,-0.70
2023-01-17T05:44:40.940Z,-0.50
2023-01-17T05:47:09.725Z,-0.40
2023-01-17T05:49:36.985Z,-0.40
2023-01-17T05:52:05.742Z,-0.30
2023-01-17T05:54:42.210Z,-0.30
2023-01-17T05:57:14.133Z,-0.10
2023-01-17T05:59:41.895Z,-0.10
2023-01-17T06:02:09.065Z,0.00
2023-01-17T06:04:37.994Z,0.00
2023-01-17T06:07:06.230Z,0.10
2023-01-17T06:09:33.199Z,0.10
2023-01-17T06:12:01.528Z,0.20
2023-01-17T06:14:31.764Z,0.30
2023-01-17T06:16:59.105Z,0.30
2023-01-17T06:19:26.300Z,0.40
2023-01-17T06:21:54.663Z,0.40
2023-01-17T06:24:23.245Z,0.40
2023-01-17T06:26:50.522Z,0.30
2023-01-17T06:29:20.194Z,0.40
2023-01-17T06:31:48.591Z,0.40
2023-01-17T06:34:35.482Z,0.40
2023-01-17T06:37:04.326Z,0.30
2023-01-17T06:39:34.322Z,0.30
2023-01-17T06:42:02.740Z,0.20
2023-01-17T06:44:35.139Z,0.10
2023-01-17T06:47:03.741Z,0.00
2023-01-17T06:49:41.817Z,0.00
2023-01-17T06:52:10.665Z,0.10
2023-01-17T06:54:39.151Z,0.00
2023-01-17T06:57:06.424Z,0.00
2023-01-17T06:59:36.362Z,0.10
2023-01-17T07:02:06.495Z,0.10
2023-01-17T07:04:36.081Z,0.20
2023-01-17T07:07:05.012Z,0.20
2023-01-17T07:09:34.957Z,0.20
2023-01-17T07:12:05.042Z,0.30
2023-01-17T07:14:34.666Z,0.30
2023-01-17T07:17:06.986Z,0.50
2023-01-17T07:19:35.265Z,0.50
2023-01-17T07:22:04.640Z,0.60
2023-01-17T07:24:41.245Z,0.60
2023-01-17T07:27:09.858Z,0.70
2023-01-17T07:29:40.866Z,0.80
2023-01-17T07:32:19.025Z,0.90
2023-01-17T07:34:47.900Z,0.90
2023-01-17T07:37:18.670Z,0.90
2023-01-17T07:39:48.651Z,1.00
2023-01-17T07:42:18.215Z,1.00
2023-01-17T07:44:46.762Z,0.90
2023-01-17T07:47:14.170Z,0.90
2023-01-17T07:49:53.445Z,0.70
2023-01-17T07:52:22.014Z,0.60
2023-01-17T07:54:50.264Z,0.70
2023-01-17T07:57:22.439Z,0.70
2023-01-17T07:59:53.694Z,0.80
2023-01-17T08:02:28.054Z,1.00
2023-01-17T08:04:57.440Z,1.30
2023-01-17T08:07:27.620Z,1.40
2023-01-17T08:09:56.809Z,1.60
2023-01-17T08:12:26.654Z,1.80
2023-01-17T08:14:54.100Z,2.10
2023-01-17T08:17:22.424Z,2.20
2023-01-17T08:19:53.808Z,2.20
2023-01-17T08:22:22.559Z,2.30
2023-01-17T08:24:51.420Z,2.20
2023-01-17T08:27:22.825Z,1.90
2023-01-17T08:29:52.579Z,1.00
2023-01-17T08:32:25.198Z,0.70
2023-01-17T08:34:53.874Z,-0.40
2023-01-17T08:37:22.816Z,-1.80
2023-01-17T08:40:01.124Z,-2.80
2023-01-17T08:42:30.041Z,-3.50
2023-01-17T08:44:58.912Z,-4.00
2023-01-17T08:47:28.619Z,-4.40
2023-01-17T08:50:00.412Z,-4.60
2023-01-17T08:52:29.127Z,-4.80
2023-01-17T08:55:05.287Z,-5.00
2023-01-17T08:57:35.980Z,-5.20
2023-01-17T09:00:08.341Z,-5.10
2023-01-17T09:02:36.790Z,-5.10
2023-01-17T09:05:06.455Z,-5.00
2023-01-17T09:07:35.550Z,-4.40
2023-01-17T09:10:04.445Z,-3.30
2023-01-17T09:12:37.376Z,-2.10
2023-01-17T09:17:48.074Z,-0.70
2023-01-17T09:20:16.965Z,-0.20
2023-01-17T09:22:47.471Z,0.20
2023-01-17T09:25:18.496Z,0.60
2023-01-17T09:27:49.335Z,0.90
2023-01-17T09:30:18.707Z,1.10
2023-01-17T09:33:00.566Z,1.30
2023-01-17T09:35:31.507Z,1.30
2023-01-17T09:37:58.643Z,1.50
2023-01-17T09:40:29.860Z,1.60
2023-01-17T09:43:18.929Z,1.60
2023-01-17T09:45:47.682Z,1.80
2023-01-17T09:48:30.580Z,1.90
2023-01-17T09:51:33.475Z,2.10
2023-01-17T09:54:03.920Z,2.20
2023-01-17T09:56:36.086Z,2.20
2023-01-17T09:59:35.328Z,2.30
2023-01-17T10:02:33.932Z,2.20
2023-01-17T10:08:59.362Z,2.30
2023-01-17T10:12:06.096Z,2.30
2023-01-17T10:14:53.812Z,2.40
2023-01-17T10:17:41.414Z,2.50
2023-01-17T10:20:52.702Z,2.50
2023-01-17T10:23:45.396Z,2.70
2023-01-17T10:26:31.258Z,2.90
2023-01-17T10:29:06.479Z,3.00
2023-01-17T10:31:51.826Z,3.10
2023-01-17T10:35:00.440Z,3.30
2023-01-17T10:38:14.777Z,3.30
2023-01-17T10:40:51.462Z,3.30
2023-01-17T10:43:35.937Z,3.30
2023-01-17T10:46:16.423Z,3.10
2023-01-17T10:48:49.580Z,3.10
2023-01-17T10:52:08.957Z,3.10
2023-01-17T10:55:30.558Z,3.00
2023-01-17T10:57:59.722Z,3.20
2023-01-17T11:00:57.885Z,3.10
2023-01-17T11:03:28.362Z,3.00
2023-01-17T11:06:17.889Z,3.10
2023-01-17T11:09:12.700Z,3.20
2023-01-17T11:11:58.641Z,3.30
2023-01-17T11:14:30.512Z,3.40
2023-01-17T11:17:10.272Z,3.50
2023-01-17T11:19:40.402Z,3.50
2023-01-17T11:22:16.448Z,3.50
2023-01-17T11:24:56.063Z,3.50
2023-01-17T11:27:41.104Z,3.70
2023-01-17T11:30:32.117Z,3.70
2023-01-17T11:33:26.958Z,3.60
2023-01-17T11:36:03.006Z,3.50
2023-01-17T11:38:31.728Z,3.40
2023-01-17T11:41:22.471Z,3.30
2023-01-17T11:44:01.240Z,3.20
2023-01-17T11:46:30.486Z,3.10
2023-01-17T11:49:04.903Z,3.30
2023-01-17T11:51:40.353Z,3.30
2023-01-17T11:54:42.642Z,3.40
2023-01-17T11:57:32.583Z,3.40
2023-01-17T12:00:41.577Z,3.50
2023-01-17T12:03:48.325Z,3.40
2023-01-17T12:06:56.232Z,3.30
2023-01-17T12:09:51.562Z,3.30
2023-01-17T12:12:58.153Z,3.30
2023-01-17T12:15:40.597Z,3.30
2023-01-17T12:18:35.297Z,3.30
2023-01-17T12:21:44.507Z,3.30
2023-01-17T12:24:55.733Z,3.20
2023-01-17T12:28:15.891Z,3.30
2023-01-17T12:31:08.758Z,3.40
2023-01-17T12:37:07.256Z,0.40
2023-01-17T12:39:54.952Z,-1.20
2023-01-17T12:42:36.178Z,-2.00
2023-01-17T12:45:16.655Z,-2.70
2023-01-17T12:48:20.181Z,-3.20
2023-01-17T12:51:31.053Z,-2.90
2023-01-17T12:54:13.621Z,-2.90
2023-01-17T12:57:06.741Z,-2.40
2023-01-17T13:00:31.535Z,-2.30
2023-01-17T13:03:42.923Z,-2.50
2023-01-17T13:06:23.385Z,-2.40
2023-01-17T13:08:53.624Z,-2.20
2023-01-17T13:11:40.242Z,-2.30
2023-01-17T13:14:12.858Z,-2.90
2023-01-17T13:17:13.482Z,-3.30
2023-01-17T13:19:52.902Z,-3.40
2023-01-17T13:22:28.571Z,-3.30
2023-01-17T13:28:04.313Z,-3.10
2023-01-17T13:30:52.951Z,-3.00
2023-01-17T13:33:48.045Z,-2.20
2023-01-17T13:36:43.109Z,-1.00
2023-01-17T13:39:40.746Z,-1.10
2023-01-17T13:42:45.706Z,-1.80
2023-01-17T13:45:23.533Z,-2.30
2023-01-17T13:47:54.532Z,-2.70
2023-01-17T13:50:51.859Z,-2.80
2023-01-17T13:53:40.451Z,-2.50
2023-01-17T13:56:32.129Z,-2.40
2023-01-17T13:59:06.486Z,-2.50
2023-01-17T14:01:53.644Z,-2.70
2023-01-17T14:04:29.443Z,-3.00
2023-01-17T14:07:06.517Z,-2.40
2023-01-17T14:09:47.853Z,-2.30
2023-01-17T14:12:47.213Z,-2.80
2023-01-17T14:15:31.295Z,-1.80
2023-01-17T14:18:05.893Z,-0.50
2023-01-17T14:20:48.431Z,0.50
2023-01-17T14:24:13.557Z,1.10
2023-01-17T14:26:58.769Z,1.50
2023-01-17T14:30:09.161Z,1.70
2023-01-17T14:32:41.473Z,1.90
2023-01-17T14:35:26.373Z,2.10
2023-01-17T14:37:58.418Z,2.10
2023-01-17T14:40:34.099Z,2.10
2023-01-17T14:43:14.715Z,2.20
2023-01-17T14:45:44.233Z,2.30
2023-01-17T14:48:20.935Z,2.40
2023-01-17T14:51:03.477Z,2.40
2023-01-17T14:53:34.321Z,2.40
2023-01-17T14:56:25.826Z,2.30
2023-01-17T14:59:17.758Z,2.30
2023-01-17T15:02:08.531Z,2.30
2023-01-17T15:04:41.805Z,2.30
2023-01-17T15:07:17.151Z,2.30
2023-01-17T15:09:45.647Z,2.30
2023-01-17T15:12:15.909Z,2.30
2023-01-17T15:14:47.638Z,2.30
2023-01-17T15:17:25.995Z,2.50
2023-01-17T15:20:08.371Z,2.50
2023-01-17T15:22:38.652Z,2.50
2023-01-17T15:25:12.173Z,2.50
2023-01-17T15:27:40.776Z,2.60
2023-01-17T15:30:14.660Z,2.60
2023-01-17T15:32:49.082Z,2.50
2023-01-17T15:35:22.631Z,2.50
2023-01-17T15:37:59.233Z,2.50
2023-01-17T15:40:28.740Z,2.40
2023-01-17T15:43:01.858Z,2.40
2023-01-17T15:45:34.511Z,2.30
2023-01-17T15:48:37.080Z,2.40
2023-01-17T15:51:10.632Z,2.50
2023-01-17T15:53:45.619Z,2.60
2023-01-17T15:56:50.337Z,2.70
2023-01-17T16:00:02.624Z,2.60
2023-01-17T16:03:12.097Z,2.40
2023-01-17T16:05:45.957Z,2.30
2023-01-17T16:08:32.530Z,2.20
2023-01-17T16:11:10.024Z,2.20
2023-01-17T16:13:42.521Z,2.10
2023-01-17T16:16:39.828Z,2.10
2023-01-17T16:19:09.813Z,2.20
2023-01-17T16:21:37.950Z,2.10
2023-01-17T16:24:09.944Z,2.20
2023-01-17T16:26:36.962Z,2.20
2023-01-17T16:29:05.160Z,2.20
2023-01-17T16:31:34.493Z,2.30
2023-01-17T16:34:02.504Z,2.40
2023-01-17T16:36:35.394Z,2.40
2023-01-17T16:39:07.127Z,2.50
2023-01-17T16:41:37.578Z,2.50
2023-01-17T16:44:06.721Z,2.40
2023-01-17T16:46:38.870Z,2.30
2023-01-17T16:49:09.145Z,2.30
2023-01-17T16:51:38.642Z,2.30
2023-01-17T16:54:09.408Z,2.40
2023-01-17T16:56:38.808Z,2.30
2023-01-17T16:59:08.761Z,2.30
2023-01-17T17:01:36.038Z,1.30
2023-01-17T17:04:05.633Z,0.00
2023-01-17T17:06:35.340Z,-0.80
2023-01-17T17:09:04.777Z,-1.40
2023-01-17T17:11:32.905Z,-1.30
2023-01-17T17:14:03.610Z,-1.10
2023-01-17T17:16:33.066Z,-1.00
2023-01-17T17:19:05.322Z,-0.70
2023-01-17T17:21:35.596Z,-0.10
2023-01-17T17:24:04.847Z,0.40
2023-01-17T17:26:40.079Z,0.60
2023-01-17T17:29:29.878Z,0.70
2023-01-17T17:31:57.262Z,0.80
2023-01-17T17:34:27.800Z,0.90
2023-01-17T17:36:58.234Z,1.10
2023-01-17T17:39:28.888Z,1.20
2023-01-17T17:41:56.257Z,1.30
2023-01-17T17:44:25.172Z,1.30
2023-01-17T17:46:54.729Z,1.40
2023-01-17T17:49:26.267Z,1.40
2023-01-17T17:51:54.625Z,1.40
2023-01-17T17:54:22.374Z,1.40
2023-01-17T17:56:49.979Z,1.40
2023-01-17T17:59:19.921Z,1.50
2023-01-17T18:01:47.871Z,1.60
2023-01-17T18:04:15.141Z,1.60
2023-01-17T18:06:42.437Z,1.60
2023-01-17T18:09:11.095Z,1.60
2023-01-17T18:11:40.907Z,1.60
2023-01-17T18:14:11.559Z,1.60
2023-01-17T18:16:42.318Z,1.60
2023-01-17T18:19:22.141Z,1.50
2023-01-17T18:21:51.464Z,1.50
2023-01-17T18:24:24.056Z,1.60
2023-01-17T18:26:57.314Z,1.70
2023-01-17T18:29:26.512Z,1.70
2023-01-17T18:31:54.781Z,1.80
2023-01-17T18:34:29.491Z,1.80
2023-01-17T18:36:57.107Z,1.80
2023-01-17T18:39:30.320Z,1.90
2023-01-17T18:41:58.477Z,1.90
2023-01-17T18:44:27.775Z,1.90
2023-01-17T18:46:55.175Z,1.90
2023-01-17T18:49:22.927Z,1.70
2023-01-17T18:51:51.742Z,1.70
2023-01-17T18:54:21.056Z,1.70
2023-01-17T18:56:48.749Z,1.70
2023-01-17T18:59:18.576Z,1.70
2023-01-17T19:01:46.012Z,1.70
2023-01-17T19:04:15.232Z,1.80
2023-01-17T19:06:45.537Z,1.70
2023-01-17T19:09:14.242Z,1.70
2023-01-17T19:11:43.491Z,1.60
2023-01-17T19:14:11.172Z,1.50
2023-01-17T19:16:41.707Z,1.40
2023-01-17T19:19:12.946Z,1.40
2023-01-17T19:21:40.401Z,1.40
2023-01-17T19:24:08.412Z,1.40
2023-01-17T19:26:36.096Z,1.30
2023-01-17T19:29:05.143Z,1.30
2023-01-17T19:31:36.100Z,1.20
2023-01-17T19:34:03.632Z,1.20
2023-01-17T19:36:36.468Z,1.10
2023-01-17T19:39:06.825Z,1.00
2023-01-17T19:41:37.258Z,1.00
2023-01-17T19:44:09.731Z,1.00
2023-01-17T19:46:37.746Z,1.10
2023-01-17T19:49:08.199Z,1.10
2023-01-17T19:51:36.576Z,1.10
2023-01-17T19:54:05.501Z,1.10
2023-01-17T19:56:32.669Z,0.80
2023-01-17T19:59:01.973Z,-0.50
2023-01-17T20:01:32.633Z,-1.80
2023-01-17T20:04:01.541Z,-2.80
2023-01-17T20:06:31.384Z,-3.40
2023-01-17T20:08:58.731Z,-3.90
2023-01-17T20:11:27.623Z,-4.40
2023-01-17T20:13:57.458Z,-4.70
2023-01-17T20:16:26.360Z,-4.90
2023-01-17T20:18:53.923Z,-5.00
2023-01-17T20:21:23.605Z,-5.20
2023-01-17T20:23:52.676Z,-5.30
2023-01-17T20:26:29.724Z,-5.30
2023-01-17T20:28:57.529Z,-5.40
2023-01-17T20:31:26.021Z,-5.50
2023-01-17T20:33:55.896Z,-5.50
2023-01-17T20:36:26.186Z,-5.60
2023-01-17T20:38:54.754Z,-5.60
2023-01-17T20:41:30.292Z,-5.70
2023-01-17T20:43:59.331Z,-5.70
2023-01-17T20:46:29.775Z,-5.80
2023-01-17T20:48:58.716Z,-5.70
2023-01-17T20:51:28.402Z,-4.40
2023-01-17T20:54:01.321Z,-3.20
2023-01-17T20:56:34.908Z,-3.70
2023-01-17T20:59:06.268Z,-4.40
2023-01-17T21:01:34.563Z,-4.80
2023-01-17T21:04:02.235Z,-5.10
2023-01-17T21:06:29.697Z,-5.30
2023-01-17T21:08:56.981Z,-5.50
2023-01-17T21:11:27.907Z,-5.60
2023-01-17T21:13:55.177Z,-5.60
2023-01-17T21:16:23.256Z,-5.70
2023-01-17T21:18:52.140Z,-5.80
2023-01-17T21:21:25.672Z,-5.80
2023-01-17T21:23:58.133Z,-5.80
2023-01-17T21:26:27.632Z,-5.90
2023-01-17T21:28:55.356Z,-5.90
2023-01-17T21:31:26.680Z,-5.90
2023-01-17T21:33:58.340Z,-6.00
2023-01-17T21:36:32.710Z,-6.10
2023-01-17T21:39:04.995Z,-6.00
2023-01-17T21:41:35.608Z,-6.00
2023-01-17T21:44:08.851Z,-6.10
2023-01-17T21:46:40.753Z,-6.00
2023-01-17T21:49:11.925Z,-6.00
2023-01-17T21:51:53.412Z,-5.90
2023-01-17T21:54:44.923Z,-4.90
2023-01-17T21:57:32.053Z,-3.70
2023-01-17T21:59:59.627Z,-3.00
2023-01-17T22:02:26.815Z,-2.60
2023-01-17T22:04:55.316Z,-2.30
2023-01-17T22:07:23.327Z,-2.00
2023-01-17T22:09:50.467Z,-1.80
2023-01-17T22:12:17.892Z,-1.50
2023-01-17T22:14:45.186Z,-1.30
2023-01-17T22:17:12.418Z,-0.90
2023-01-17T22:19:39.368Z,-0.20
2023-01-17T22:22:06.456Z,0.30
2023-01-17T22:24:33.752Z,0.50
2023-01-17T22:27:01.027Z,0.70
2023-01-17T22:29:28.556Z,0.80
2023-01-17T22:31:56.016Z,0.80
2023-01-17T22:34:23.226Z,0.80
2023-01-17T22:36:50.655Z,0.80
2023-01-17T22:39:17.939Z,0.90
2023-01-17T22:41:45.202Z,0.90
2023-01-17T22:44:12.737Z,0.90
2023-01-17T22:46:41.566Z,0.90
2023-01-17T22:49:13.520Z,0.90
2023-01-17T22:51:40.727Z,0.90
2023-01-17T22:54:08.092Z,1.00
2023-01-17T22:56:35.905Z,1.00
2023-01-17T22:59:03.455Z,1.00
2023-01-17T23:01:33.234Z,0.90
2023-01-17T23:04:03.239Z,0.10
2023-01-17T23:06:31.726Z,-1.20
2023-01-17T23:09:02.690Z,-2.20
2023-01-17T23:11:39.877Z,-2.70
2023-01-17T23:14:27.702Z,-3.10
2023-01-17T23:17:15.682Z,-3.30
2023-01-17T23:19:52.124Z,-3.40
2023-01-17T23:22:24.607Z,-3.50
2023-01-17T23:24:59.003Z,-3.50
2023-01-17T23:27:57.138Z,-3.50
2023-01-17T23:30:29.844Z,-3.50
2023-01-17T23:33:02.523Z,-3.40
2023-01-17T23:35:32.629Z,-2.80
2023-01-17T23:38:19.202Z,-2.20
2023-01-17T23:41:07.069Z,-1.70
2023-01-17T23:43:35.401Z,-1.30
2023-01-17T23:46:04.356Z,-0.90
2023-01-17T23:48:31.886Z,-0.60
2023-01-17T23:51:01.170Z,-0.40
2023-01-17T23:53:28.433Z,-0.20
2023-01-17T23:55:57.238Z,0.00
2023-01-17T23:58:26.812Z,0.30
